This demonstration page uses our WeatherBlox Daily Observations layout. Learn more.

41.55636, -103.73856

Hourly Observations for March 22, 2015

Temp ( °F °C ) Dew Point ( °F °C ) Humidity (%) Winds ( mph kmh ) Pressure ( in mb ) Visibility ( mi km ) Precip ( " mm )
12:53 am 00:53 Clear 43 6.1 19 -7.2 38 38 NNW 5 7 29.83 1010 10 16.0934 0 0
1:53 am 01:53 Clear 38 3.3 20 -6.7 48 48 NW 8 13 29.85 1011 10 16.0934 0 0
2:53 am 02:53 Clear 41 5 20 -6.7 43 43 NNW 8 13 29.83 1010 10 16.0934 0 0
3:53 am 03:53 Clear 42 5.6 22 -5.6 45 45 NNW 9 15 29.83 1010 10 16.0934 0 0
4:53 am 04:53 Clear 41 5 22 -5.6 47 47 NNW 7 11 29.83 1010 10 16.0934 0 0
5:53 am 05:53 Partly Cloudy 41 5 22 -5.6 47 47 WNW 7 11 29.85 1011 10 16.0934 0 0
6:53 am 06:53 Clear 40 4.4 23 -5 51 51 NW 12 19 29.9 1013 10 16.0934 0 0
7:53 am 07:53 Sunny 45 7.2 25 -3.9 46 46 WNW 13 20 29.95 1014 10 16.0934 0 0
8:53 am 08:53 Sunny 52 11.1 27 -2.8 38 38 WNW 13 20 29.96 1015 10 16.0934 0 0
9:53 am 09:53 Sunny 58 14.4 31 -0.6 36 36 WNW 16 26 29.98 1015 10 16.0934 0 0
10:53 am 10:53 Sunny 61 16.1 34 1.1 36 36 NW 16 26 30.01 1016 10 16.0934 0 0
11:53 am 11:53 Sunny 63 17.2 35 1.7 35 35 NW 16 26 30.01 1016 10 16.0934 0 0
12:53 pm 12:53 Sunny 64 17.8 33 0.6 32 32 NW 18 30 30 1016 10 16.0934 0 0
1:53 pm 13:53 Sunny 66 18.9 33 0.6 29 29 NW 18 30 30.01 1016 10 16.0934 0 0
2:53 pm 14:53 Sunny 67 19.4 31 -0.6 26 26 NW 15 24 29.99 1016 10 16.0934 0 0
3:53 pm 15:53 Mostly Sunny 62 16.7 29 -1.7 29 29 NW 18 30 30 1016 10 16.0934 0 0
4:53 pm 16:53 Mostly Sunny 64 17.8 29 -1.7 27 27 N 15 24 30 1016 10 16.0934 0 0
5:53 pm 17:53 Mostly Sunny 61 16.1 29 -1.7 30 30 NNE 15 24 30.01 1016 10 16.0934 0 0
6:53 pm 18:53 Sunny 55 12.8 32 0 42 42 NE 14 22 30.04 1017 10 16.0934 0 0
7:53 pm 19:53 Clear 49 9.4 32 0 52 52 ENE 13 20 30.06 1018 10 16.0934 0 0
8:53 pm 20:53 Clear 47 8.3 32 0 56 56 SE 7 11 30.08 1019 10 16.0934 0 0
9:53 pm 21:53 Clear 41 5 30 -1.1 65 65 E 6 9 30.09 1019 10 16.0934 0 0
10:53 pm 22:53 Clear 39 3.9 30 -1.1 70 70 E 6 9 30.1 1019 10 16.0934 0 0
11:53 pm 23:53 Clear 38 3.3 29 -1.7 70 70 E 7 11 30.1 1019 10 16.0934 0 0

Powered by AerisWeather